sensor_id;sensor_type;location;lat;lon;timestamp;temperature;humidity
14769;DHT22;7476;49.404;11.152;2022-12-08T00:00:07;1.90;99.90
14769;DHT22;7476;49.404;11.152;2022-12-08T00:02:34;1.90;99.90
14769;DHT22;7476;49.404;11.152;2022-12-08T00:05:01;2.00;99.90
14769;DHT22;7476;49.404;11.152;2022-12-08T00:07:47;2.00;99.90
14769;DHT22;7476;49.404;11.152;2022-12-08T00:10:31;2.00;99.90
14769;DHT22;7476;49.404;11.152;2022-12-08T00:12:58;2.00;99.90
14769;DHT22;7476;49.404;11.152;2022-12-08T00:15:25;2.00;99.90
14769;DHT22;7476;49.404;11.152;2022-12-08T00:17:51;2.00;99.90
14769;DHT22;7476;49.404;11.152;2022-12-08T00:20:18;2.00;99.90
14769;DHT22;7476;49.404;11.152;2022-12-08T00:22:46;2.00;99.90
14769;DHT22;7476;49.404;11.152;2022-12-08T00:25:13;2.10;99.90
14769;DHT22;7476;49.404;11.152;2022-12-08T00:27:40;2.00;99.90
14769;DHT22;7476;49.404;11.152;2022-12-08T00:30:08;2.10;99.90
14769;DHT22;7476;49.404;11.152;2022-12-08T00:32:36;2.00;99.90
14769;DHT22;7476;49.404;11.152;2022-12-08T00:35:03;2.10;99.90
14769;DHT22;7476;49.404;11.152;2022-12-08T00:37:30;2.10;99.90
14769;DHT22;7476;49.404;11.152;2022-12-08T00:39:58;2.10;99.90
14769;DHT22;7476;49.404;11.152;2022-12-08T00:42:25;2.10;99.90
14769;DHT22;7476;49.404;11.152;2022-12-08T00:44:51;2.10;99.90
14769;DHT22;7476;49.404;11.152;2022-12-08T00:47:19;2.10;99.90
14769;DHT22;7476;49.404;11.152;2022-12-08T00:49:45;2.10;99.90
14769;DHT22;7476;49.404;11.152;2022-12-08T00:52:12;2.10;99.90
14769;DHT22;7476;49.404;11.152;2022-12-08T00:54:39;2.10;99.90
14769;DHT22;7476;49.404;11.152;2022-12-08T00:57:07;2.20;99.90
14769;DHT22;7476;49.404;11.152;2022-12-08T00:59:33;2.20;99.90
14769;DHT22;7476;49.404;11.152;2022-12-08T01:02:00;2.20;99.90
14769;DHT22;7476;49.404;11.152;2022-12-08T01:04:27;2.20;99.90
14769;DHT22;7476;49.404;11.152;2022-12-08T01:06:54;2.30;99.90
14769;DHT22;7476;49.404;11.152;2022-12-08T01:09:20;2.20;99.90
14769;DHT22;7476;49.404;11.152;2022-12-08T01:11:47;2.30;99.90
14769;DHT22;7476;49.404;11.152;2022-12-08T01:14:15;2.20;99.90
14769;DHT22;7476;49.404;11.152;2022-12-08T01:16:42;2.20;99.90
14769;DHT22;7476;49.404;11.152;2022-12-08T01:19:10;2.20;99.90
14769;DHT22;7476;49.404;11.152;2022-12-08T01:21:37;2.10;99.90
14769;DHT22;7476;49.404;11.152;2022-12-08T01:24:04;2.00;99.90
14769;DHT22;7476;49.404;11.152;2022-12-08T01:26:31;1.90;99.90
14769;DHT22;7476;49.404;11.152;2022-12-08T01:28:58;1.80;99.90
14769;DHT22;7476;49.404;11.152;2022-12-08T01:31:26;1.70;99.90
14769;DHT22;7476;49.404;11.152;2022-12-08T01:33:53;1.60;99.90
14769;DHT22;7476;49.404;11.152;2022-12-08T01:36:22;1.40;99.90
14769;DHT22;7476;49.404;11.152;2022-12-08T01:38:49;1.30;99.90
14769;DHT22;7476;49.404;11.152;2022-12-08T01:41:18;1.10;99.90
14769;DHT22;7476;49.404;11.152;2022-12-08T01:43:55;0.90;99.90
14769;DHT22;7476;49.404;11.152;2022-12-08T01:46:23;0.70;99.90
14769;DHT22;7476;49.404;11.152;2022-12-08T01:48:54;0.50;99.90
14769;DHT22;7476;49.404;11.152;2022-12-08T01:51:22;0.30;99.90
14769;DHT22;7476;49.404;11.152;2022-12-08T01:53:49;0.10;99.90
14769;DHT22;7476;49.404;11.152;2022-12-08T01:56:22;0.10;99.90
14769;DHT22;7476;49.404;11.152;2022-12-08T01:58:52;0.00;99.90
14769;DHT22;7476;49.404;11.152;2022-12-08T02:01:20;0.00;99.90
14769;DHT22;7476;49.404;11.152;2022-12-08T02:03:51;0.00;99.90
14769;DHT22;7476;49.404;11.152;2022-12-08T02:06:20;-0.10;99.90
14769;DHT22;7476;49.404;11.152;2022-12-08T02:08:47;-0.10;99.90
14769;DHT22;7476;49.404;11.152;2022-12-08T02:11:15;-0.10;99.90
14769;DHT22;7476;49.404;11.152;2022-12-08T02:13:43;-0.20;99.90
14769;DHT22;7476;49.404;11.152;2022-12-08T02:16:17;-0.20;99.90
14769;DHT22;7476;49.404;11.152;2022-12-08T02:18:58;-0.10;99.90
14769;DHT22;7476;49.404;11.152;2022-12-08T02:21:30;-0.10;99.90
14769;DHT22;7476;49.404;11.152;2022-12-08T02:24:04;-0.10;99.90
14769;DHT22;7476;49.404;11.152;2022-12-08T02:27:13;-0.20;99.90
14769;DHT22;7476;49.404;11.152;2022-12-08T02:29:58;-0.30;99.90
14769;DHT22;7476;49.404;11.152;2022-12-08T02:33:06;-0.30;99.90
14769;DHT22;7476;49.404;11.152;2022-12-08T02:35:38;-0.40;99.90
14769;DHT22;7476;49.404;11.152;2022-12-08T02:38:14;-0.50;99.90
14769;DHT22;7476;49.404;11.152;2022-12-08T02:40:50;-0.60;99.90
14769;DHT22;7476;49.404;11.152;2022-12-08T02:43:24;-0.60;99.90
14769;DHT22;7476;49.404;11.152;2022-12-08T02:45:57;-0.50;99.90
14769;DHT22;7476;49.404;11.152;2022-12-08T02:48:25;-0.50;99.90
14769;DHT22;7476;49.404;11.152;2022-12-08T02:50:54;-0.50;99.90
14769;DHT22;7476;49.404;11.152;2022-12-08T02:53:21;-0.20;99.90
14769;DHT22;7476;49.404;11.152;2022-12-08T02:55:55;-0.40;99.90
14769;DHT22;7476;49.404;11.152;2022-12-08T02:58:37;-0.60;99.90
14769;DHT22;7476;49.404;11.152;2022-12-08T03:01:28;-0.60;99.90
14769;DHT22;7476;49.404;11.152;2022-12-08T03:04:03;-0.70;99.90
14769;DHT22;7476;49.404;11.152;2022-12-08T03:06:38;-0.60;99.90
14769;DHT22;7476;49.404;11.152;2022-12-08T03:09:12;-0.90;99.90
14769;DHT22;7476;49.404;11.152;2022-12-08T03:11:45;-1.00;99.90
14769;DHT22;7476;49.404;11.152;2022-12-08T03:14:16;-1.00;99.90
14769;DHT22;7476;49.404;11.152;2022-12-08T03:16:46;-1.10;99.90
14769;DHT22;7476;49.404;11.152;2022-12-08T03:19:17;-1.20;99.90
14769;DHT22;7476;49.404;11.152;2022-12-08T03:21:49;-1.20;99.90
14769;DHT22;7476;49.404;11.152;2022-12-08T03:24:18;-1.20;99.90
14769;DHT22;7476;49.404;11.152;2022-12-08T03:26:51;-1.30;99.90
14769;DHT22;7476;49.404;11.152;2022-12-08T03:29:20;-1.20;99.90
14769;DHT22;7476;49.404;11.152;2022-12-08T03:31:51;-1.40;99.90
14769;DHT22;7476;49.404;11.152;2022-12-08T03:34:20;-1.40;99.90
14769;DHT22;7476;49.404;11.152;2022-12-08T03:36:49;-1.30;99.90
14769;DHT22;7476;49.404;11.152;2022-12-08T03:39:16;-1.20;99.90
14769;DHT22;7476;49.404;11.152;2022-12-08T03:41:43;-1.10;99.90
14769;DHT22;7476;49.404;11.152;2022-12-08T03:44:11;-0.90;99.90
14769;DHT22;7476;49.404;11.152;2022-12-08T03:46:37;-0.70;99.90
14769;DHT22;7476;49.404;11.152;2022-12-08T22:45:00;0.40;99.90
14769;DHT22;7476;49.404;11.152;2022-12-08T22:47:28;0.40;99.90
14769;DHT22;7476;49.404;11.152;2022-12-08T22:49:54;0.40;99.90
14769;DHT22;7476;49.404;11.152;2022-12-08T22:52:21;0.40;99.90
14769;DHT22;7476;49.404;11.152;2022-12-08T22:54:48;0.40;99.90
14769;DHT22;7476;49.404;11.152;2022-12-08T22:57:15;0.40;99.90
14769;DHT22;7476;49.404;11.152;2022-12-08T22:59:42;0.50;99.90
14769;DHT22;7476;49.404;11.152;2022-12-08T23:02:10;0.40;99.90
14769;DHT22;7476;49.404;11.152;2022-12-08T23:04:37;0.40;99.90
14769;DHT22;7476;49.404;11.152;2022-12-08T23:07:03;0.40;99.90
14769;DHT22;7476;49.404;11.152;2022-12-08T23:09:30;0.40;99.90
14769;DHT22;7476;49.404;11.152;2022-12-08T23:11:57;0.30;99.90
14769;DHT22;7476;49.404;11.152;2022-12-08T23:14:24;0.30;99.90
14769;DHT22;7476;49.404;11.152;2022-12-08T23:16:50;0.20;99.90
14769;DHT22;7476;49.404;11.152;2022-12-08T23:19:18;0.20;99.90
14769;DHT22;7476;49.404;11.152;2022-12-08T23:21:45;0.20;99.90
14769;DHT22;7476;49.404;11.152;2022-12-08T23:24:12;0.10;99.90
14769;DHT22;7476;49.404;11.152;2022-12-08T23:26:38;0.00;99.90
14769;DHT22;7476;49.404;11.152;2022-12-08T23:29:07;-0.10;99.90
14769;DHT22;7476;49.404;11.152;2022-12-08T23:31:34;-0.10;99.90
14769;DHT22;7476;49.404;11.152;2022-12-08T23:34:02;-0.20;99.90
14769;DHT22;7476;49.404;11.152;2022-12-08T23:36:30;-0.40;99.90
14769;DHT22;7476;49.404;11.152;2022-12-08T23:38:57;-0.50;99.90
14769;DHT22;7476;49.404;11.152;2022-12-08T23:41:23;-0.60;99.90
14769;DHT22;7476;49.404;11.152;2022-12-08T23:43:50;-0.70;99.90
14769;DHT22;7476;49.404;11.152;2022-12-08T23:46:19;-0.80;99.90
14769;DHT22;7476;49.404;11.152;2022-12-08T23:48:46;-0.90;99.90
14769;DHT22;7476;49.404;11.152;2022-12-08T23:51:13;-1.10;99.90
14769;DHT22;7476;49.404;11.152;2022-12-08T23:53:41;-1.30;99.90
14769;DHT22;7476;49.404;11.152;2022-12-08T23:56:10;-1.40;99.90
14769;DHT22;7476;49.404;11.152;2022-12-08T23:58:38;-1.40;99.90
